Time;durP1;ratioP1;P1;durP2;ratioP2;P2;SDS_P1;SDS_P2;PMS_P1;PMS_P2;Temp;Humidity;BMP_temperature;BMP_pressure;BME280_temperature;BME280_humidity;BME280_pressure;Samples;Min_cycle;Max_cycle;Signal;HPM_P1;HPM_P2
2021/11/07 00:00:58;;;;;;;9.05;4.07;;;;;;;;;;4853722;29;20042;-76
2021/11/07 00:06:07;;;;;;;9.05;3.78;;;;;;;;;;4853583;29;19912;-76
2021/11/07 00:11:01;;;;;;;4.90;3.03;;;;;;;;;;4853468;29;20366;-76
2021/11/07 00:13:28;;;;;;;7.13;3.95;;;;;;;;;;4853403;29;20523;-77
2021/11/07 00:15:58;;;;;;;9.85;4.55;;;;;;;;;;4837016;29;20038;-77
2021/11/07 00:18:29;;;;;;;11.63;4.13;;;;;;;;;;4853398;29;20061;-76
2021/11/07 00:26:25;;;;;;;9.23;4.50;;;;;;;;;;4853389;29;20042;-77
2021/11/07 00:28:55;;;;;;;8.95;5.13;;;;;;;;;;4853015;29;20037;-76
2021/11/07 00:36:38;;;;;;;8.02;4.40;;;;;;;;;;4853072;29;20089;-76
2021/11/07 00:39:18;;;;;;;12.55;6.38;;;;;;;;;;4836294;29;20403;-76
2021/11/07 00:41:52;;;;;;;7.55;4.18;;;;;;;;;;4852545;29;20038;-77
2021/11/07 00:44:55;;;;;;;6.78;2.85;;;;;;;;;;4836650;29;20041;-77
2021/11/07 00:47:25;;;;;;;4.65;3.08;;;;;;;;;;4850434;29;20050;-78
2021/11/07 00:49:57;;;;;;;10.23;3.28;;;;;;;;;;4836516;29;20038;-76
2021/11/07 00:52:37;;;;;;;6.65;2.63;;;;;;;;;;4852560;29;20029;-76
2021/11/07 01:02:59;;;;;;;8.10;3.20;;;;;;;;;;4852794;29;20098;-76
2021/11/07 01:05:27;;;;;;;10.25;3.05;;;;;;;;;;4853138;29;20283;-77
2021/11/07 01:07:54;;;;;;;8.68;3.03;;;;;;;;;;4852800;29;20044;-78
2021/11/07 01:10:20;;;;;;;8.50;3.28;;;;;;;;;;4852667;29;20045;-78
2021/11/07 01:12:46;;;;;;;5.28;2.60;;;;;;;;;;4836037;29;20030;-77
2021/11/07 01:15:12;;;;;;;5.28;3.45;;;;;;;;;;4852637;29;20060;-76
2021/11/07 01:17:40;;;;;;;8.18;4.18;;;;;;;;;;4835661;29;20030;-77
2021/11/07 01:20:07;;;;;;;11.60;5.65;;;;;;;;;;4852793;29;20069;-77
2021/11/07 01:25:18;;;;;;;12.80;5.20;;;;;;;;;;4852985;29;20045;-76
2021/11/07 01:27:45;;;;;;;11.70;6.72;;;;;;;;;;4835461;29;20504;-77
2021/11/07 01:30:16;;;;;;;16.70;7.13;;;;;;;;;;4852276;29;20061;-77
2021/11/07 01:32:49;;;;;;;16.80;8.55;;;;;;;;;;4852405;29;20065;-77
2021/11/07 01:35:22;;;;;;;19.75;9.40;;;;;;;;;;4836076;29;20034;-76
2021/11/07 01:37:57;;;;;;;17.27;7.47;;;;;;;;;;4852171;29;20038;-76
2021/11/07 01:40:28;;;;;;;15.68;7.80;;;;;;;;;;4852466;29;20022;-75
2021/11/07 01:42:56;;;;;;;13.15;5.95;;;;;;;;;;4852023;29;20041;-78
2021/11/07 01:45:26;;;;;;;16.80;8.73;;;;;;;;;;4851550;29;20053;-78
2021/11/07 01:47:56;;;;;;;17.98;9.50;;;;;;;;;;4855477;29;20037;-77
2021/11/07 01:50:22;;;;;;;24.48;10.70;;;;;;;;;;4838900;29;20030;-78
2021/11/07 01:52:54;;;;;;;24.02;10.55;;;;;;;;;;4838967;29;20038;-77
2021/11/07 01:55:20;;;;;;;29.33;11.98;;;;;;;;;;4855419;29;20030;-76
2021/11/07 01:57:49;;;;;;;12.48;6.57;;;;;;;;;;4855223;29;20042;-77
2021/11/07 02:00:24;;;;;;;23.70;9.75;;;;;;;;;;4855557;29;20102;-77
2021/11/07 02:02:50;;;;;;;16.42;9.10;;;;;;;;;;4855452;29;20042;-77
2021/11/07 02:05:16;;;;;;;30.55;12.52;;;;;;;;;;4855592;29;20117;-76
2021/11/07 02:07:41;;;;;;;27.05;11.43;;;;;;;;;;4838398;29;20034;-77
2021/11/07 02:10:10;;;;;;;25.13;12.20;;;;;;;;;;4855190;29;20037;-78
2021/11/07 02:12:36;;;;;;;26.73;13.18;;;;;;;;;;4855103;29;20030;-78
2021/11/07 02:15:06;;;;;;;23.15;11.25;;;;;;;;;;4839013;29;20072;-78
2021/11/07 02:17:31;;;;;;;20.25;8.48;;;;;;;;;;4838498;29;20034;-77
2021/11/07 02:20:03;;;;;;;31.42;12.18;;;;;;;;;;4855229;29;20066;-76
2021/11/07 02:22:30;;;;;;;22.63;11.95;;;;;;;;;;4855267;29;20038;-78
2021/11/07 02:24:56;;;;;;;20.98;10.57;;;;;;;;;;4855422;29;20038;-77
2021/11/07 02:27:23;;;;;;;33.75;14.50;;;;;;;;;;4838239;29;20038;-77
2021/11/07 02:29:49;;;;;;;24.75;13.13;;;;;;;;;;4854919;29;20073;-77
2021/11/07 02:32:14;;;;;;;30.92;14.60;;;;;;;;;;4838846;29;20106;-77
2021/11/07 02:34:40;;;;;;;22.33;11.65;;;;;;;;;;4854977;29;20070;-79
2021/11/07 02:37:06;;;;;;;17.85;10.27;;;;;;;;;;4854965;29;20033;-76
2021/11/07 02:39:32;;;;;;;32.83;17.75;;;;;;;;;;4838151;29;20062;-76
2021/11/07 02:41:57;;;;;;;31.70;16.70;;;;;;;;;;4854668;29;20109;-77
2021/11/07 02:44:32;;;;;;;28.33;15.70;;;;;;;;;;4837905;29;20034;-77
2021/11/07 02:46:58;;;;;;;27.30;11.23;;;;;;;;;;4838038;29;20042;-77
2021/11/07 02:49:24;;;;;;;21.15;12.10;;;;;;;;;;4854781;29;20059;-78
2021/11/07 02:51:50;;;;;;;25.95;10.40;;;;;;;;;;4838215;29;20030;-78
2021/11/07 02:54:15;;;;;;;22.65;11.63;;;;;;;;;;4837560;29;20034;-77
2021/11/07 02:56:41;;;;;;;28.98;13.30;;;;;;;;;;4854344;29;20506;-78
2021/11/07 02:59:10;;;;;;;24.55;11.93;;;;;;;;;;4853481;29;20171;-77
2021/11/07 03:01:36;;;;;;;26.83;13.65;;;;;;;;;;4837664;29;20063;-77
2021/11/07 03:04:07;;;;;;;25.25;13.98;;;;;;;;;;4854244;29;20038;-77
2021/11/07 03:06:34;;;;;;;18.77;10.27;;;;;;;;;;4854259;29;20037;-76
2021/11/07 03:09:01;;;;;;;24.33;12.48;;;;;;;;;;4837589;29;20046;-76
2021/11/07 03:11:26;;;;;;;20.17;12.20;;;;;;;;;;4854435;29;20033;-78
2021/11/07 03:13:52;;;;;;;25.90;11.88;;;;;;;;;;4837629;29;20029;-77
2021/11/07 03:16:18;;;;;;;22.80;11.05;;;;;;;;;;4837758;29;20049;-77
2021/11/07 03:18:43;;;;;;;25.27;12.23;;;;;;;;;;4853918;29;20088;-80
2021/11/07 03:21:11;;;;;;;17.85;10.10;;;;;;;;;;4837887;29;20657;-78
2021/11/07 03:23:39;;;;;;;17.80;10.15;;;;;;;;;;4853944;29;20054;-77
2021/11/07 03:26:12;;;;;;;12.02;6.85;;;;;;;;;;4854493;29;20026;-78
2021/11/07 03:28:39;;;;;;;25.58;10.20;;;;;;;;;;4837483;29;20041;-77
2021/11/07 03:31:14;;;;;;;21.60;13.38;;;;;;;;;;4853765;29;20053;-76
2021/11/07 03:33:46;;;;;;;17.25;9.13;;;;;;;;;;4853863;29;20090;-76
2021/11/07 03:36:17;;;;;;;15.50;10.38;;;;;;;;;;4837556;29;20042;-76
2021/11/07 03:38:44;;;;;;;26.08;15.32;;;;;;;;;;4853816;29;20094;-78
2021/11/07 03:41:11;;;;;;;22.45;11.77;;;;;;;;;;4837724;29;20030;-78
2021/11/07 03:43:37;;;;;;;29.35;14.30;;;;;;;;;;4836924;29;20062;-76
2021/11/07 03:46:02;;;;;;;22.63;13.43;;;;;;;;;;4853809;29;20030;-78
2021/11/07 03:48:28;;;;;;;23.42;13.25;;;;;;;;;;4853793;29;20038;-76
2021/11/07 03:50:54;;;;;;;26.20;12.75;;;;;;;;;;4853779;29;20041;-78
2021/11/07 03:53:20;;;;;;;29.92;14.35;;;;;;;;;;4853429;29;20045;-77
2021/11/07 03:55:46;;;;;;;25.15;13.07;;;;;;;;;;4853594;29;20030;-78
2021/11/07 03:58:11;;;;;;;26.38;13.55;;;;;;;;;;4853389;29;20062;-80
2021/11/07 04:00:37;;;;;;;15.25;8.55;;;;;;;;;;4853604;29;20030;-79
2021/11/07 04:03:05;;;;;;;30.70;16.80;;;;;;;;;;4853519;29;20034;-77
2021/11/07 04:05:31;;;;;;;19.52;12.55;;;;;;;;;;4854025;29;20037;-78
2021/11/07 04:07:57;;;;;;;19.92;11.27;;;;;;;;;;4853511;29;20034;-77
2021/11/07 04:10:23;;;;;;;23.70;12.02;;;;;;;;;;4853042;29;20038;-77
2021/11/07 04:12:48;;;;;;;28.63;14.80;;;;;;;;;;4836512;29;20395;-78
2021/11/07 04:15:14;;;;;;;16.38;10.48;;;;;;;;;;4853310;29;20060;-78
2021/11/07 04:17:39;;;;;;;27.73;14.23;;;;;;;;;;4836710;29;20053;-79
2021/11/07 04:20:07;;;;;;;18.02;10.25;;;;;;;;;;4853344;29;20061;-77
2021/11/07 04:22:32;;;;;;;29.83;12.57;;;;;;;;;;4852898;29;20382;-80
2021/11/07 04:24:58;;;;;;;25.35;12.73;;;;;;;;;;4853107;29;20057;-75
2021/11/07 04:27:23;;;;;;;29.25;15.73;;;;;;;;;;4852860;29;20030;-78
2021/11/07 04:29:50;;;;;;;22.90;12.25;;;;;;;;;;4852926;29;20078;-77
2021/11/07 04:32:15;;;;;;;27.02;14.73;;;;;;;;;;4852893;29;20062;-76
2021/11/07 04:34:42;;;;;;;31.52;16.73;;;;;;;;;;4853194;29;20038;-77
2021/11/07 04:37:08;;;;;;;25.17;13.52;;;;;;;;;;4852636;29;20042;-76
2021/11/07 04:39:33;;;;;;;21.58;8.52;;;;;;;;;;4853043;29;20416;-78
2021/11/07 04:41:59;;;;;;;24.13;11.07;;;;;;;;;;4836400;29;20034;-76
2021/11/07 04:44:25;;;;;;;26.13;14.55;;;;;;;;;;4853024;29;20034;-76
2021/11/07 04:46:51;;;;;;;20.58;10.57;;;;;;;;;;4836437;29;20037;-76
2021/11/07 04:49:17;;;;;;;20.95;13.45;;;;;;;;;;4836314;29;20034;-77
2021/11/07 04:51:42;;;;;;;14.25;8.85;;;;;;;;;;4835795;29;20033;-77
2021/11/07 04:54:08;;;;;;;14.18;8.23;;;;;;;;;;4853027;29;20423;-78
2021/11/07 04:56:33;;;;;;;17.65;7.97;;;;;;;;;;4852651;29;20033;-75
2021/11/07 04:58:59;;;;;;;18.45;8.88;;;;;;;;;;4851930;29;20069;-75
2021/11/07 05:01:25;;;;;;;32.15;14.23;;;;;;;;;;4835884;29;20055;-76
2021/11/07 05:03:51;;;;;;;10.52;6.93;;;;;;;;;;4851443;29;20038;-77
2021/11/07 05:06:17;;;;;;;17.67;10.23;;;;;;;;;;4851781;29;20046;-76
2021/11/07 05:08:42;;;;;;;18.27;9.18;;;;;;;;;;4852127;29;20026;-75
2021/11/07 05:11:07;;;;;;;26.92;12.82;;;;;;;;;;4851927;29;20037;-76
2021/11/07 05:13:33;;;;;;;11.02;6.97;;;;;;;;;;4851527;29;20059;-75
2021/11/07 05:15:59;;;;;;;20.23;11.20;;;;;;;;;;4835163;29;20125;-76
2021/11/07 05:18:24;;;;;;;11.55;7.15;;;;;;;;;;4835610;29;20061;-74
2021/11/07 05:20:50;;;;;;;12.82;7.57;;;;;;;;;;4836450;29;20038;-75
2021/11/07 05:23:15;;;;;;;18.90;9.63;;;;;;;;;;4856459;29;20093;-76
2021/11/07 05:25:42;;;;;;;23.50;10.55;;;;;;;;;;4839715;29;20065;-77
2021/11/07 05:28:08;;;;;;;17.60;10.32;;;;;;;;;;4856252;29;20069;-77
2021/11/07 05:30:34;;;;;;;8.88;4.80;;;;;;;;;;4856052;29;20535;-75
2021/11/07 05:32:59;;;;;;;12.20;4.95;;;;;;;;;;4839464;29;20037;-77
2021/11/07 05:35:26;;;;;;;16.70;9.18;;;;;;;;;;4839122;29;20038;-76
2021/11/07 05:37:51;;;;;;;12.98;5.88;;;;;;;;;;4856114;29;20034;-75
2021/11/07 05:40:19;;;;;;;13.63;7.43;;;;;;;;;;4839160;29;20038;-78
2021/11/07 05:42:46;;;;;;;19.67;9.23;;;;;;;;;;4856081;29;20040;-77
2021/11/07 05:45:12;;;;;;;13.43;7.88;;;;;;;;;;4856001;29;20037;-75
2021/11/07 05:47:37;;;;;;;17.48;9.23;;;;;;;;;;4838934;29;20034;-74
2021/11/07 05:50:07;;;;;;;16.58;9.48;;;;;;;;;;4855551;29;20038;-74
2021/11/07 05:52:33;;;;;;;17.52;8.40;;;;;;;;;;4854524;29;20030;-72
2021/11/07 05:54:58;;;;;;;14.55;7.30;;;;;;;;;;4854343;29;20042;-73
2021/11/07 05:57:25;;;;;;;14.10;8.18;;;;;;;;;;4855006;29;20090;-73
2021/11/07 05:59:53;;;;;;;16.70;8.10;;;;;;;;;;4838617;29;20102;-75
2021/11/07 06:02:18;;;;;;;19.40;7.43;;;;;;;;;;4838288;29;20037;-74
2021/11/07 06:04:44;;;;;;;15.60;7.55;;;;;;;;;;4855414;29;20037;-73
2021/11/07 06:07:09;;;;;;;13.43;6.18;;;;;;;;;;4854938;29;20041;-75
2021/11/07 06:09:35;;;;;;;4.13;3.00;;;;;;;;;;4838644;29;20026;-73
2021/11/07 06:12:01;;;;;;;6.00;2.83;;;;;;;;;;4838084;29;20530;-75
2021/11/07 06:14:27;;;;;;;9.75;4.07;;;;;;;;;;4855148;29;20042;-77
2021/11/07 06:16:52;;;;;;;10.77;5.50;;;;;;;;;;4855159;29;20058;-75
2021/11/07 06:19:17;;;;;;;10.75;4.72;;;;;;;;;;4855054;29;20474;-75
2021/11/07 06:21:45;;;;;;;10.05;4.78;;;;;;;;;;4854886;29;20038;-76
2021/11/07 06:24:12;;;;;;;10.80;5.55;;;;;;;;;;4854899;29;20209;-78
2021/11/07 06:26:41;;;;;;;8.48;4.53;;;;;;;;;;4854746;29;20058;-74
2021/11/07 06:29:07;;;;;;;7.25;4.57;;;;;;;;;;4855096;29;20041;-78
2021/11/07 06:31:32;;;;;;;14.75;7.88;;;;;;;;;;4854255;29;20124;-76
2021/11/07 06:33:58;;;;;;;9.65;5.05;;;;;;;;;;4855155;29;20034;-75
2021/11/07 06:36:24;;;;;;;9.95;5.32;;;;;;;;;;4854958;29;20511;-76
2021/11/07 06:38:50;;;;;;;11.77;6.55;;;;;;;;;;4854743;29;20038;-75
2021/11/07 06:41:15;;;;;;;10.07;5.05;;;;;;;;;;4854412;29;20033;-76
2021/11/07 06:43:41;;;;;;;7.32;4.07;;;;;;;;;;4854556;29;20048;-77
2021/11/07 06:46:06;;;;;;;7.47;3.85;;;;;;;;;;4854719;29;20033;-79
2021/11/07 06:48:32;;;;;;;7.32;4.07;;;;;;;;;;4854487;29;20038;-77
2021/11/07 06:50:58;;;;;;;10.40;5.63;;;;;;;;;;4854553;29;20421;-77
2021/11/07 06:53:25;;;;;;;10.70;3.55;;;;;;;;;;4855159;29;20098;-79
2021/11/07 06:55:53;;;;;;;8.70;4.20;;;;;;;;;;4854775;29;20034;-77
2021/11/07 06:58:18;;;;;;;9.45;4.13;;;;;;;;;;4854520;29;20061;-76
2021/11/07 07:00:44;;;;;;;10.40;4.32;;;;;;;;;;4854565;29;20037;-76
2021/11/07 07:03:09;;;;;;;7.55;3.50;;;;;;;;;;4837746;29;20074;-76
2021/11/07 07:05:34;;;;;;;12.63;4.70;;;;;;;;;;4854574;29;20038;-78
2021/11/07 07:08:09;;;;;;;9.93;4.18;;;;;;;;;;4837247;29;20044;-75
2021/11/07 07:10:46;;;;;;;5.28;3.17;;;;;;;;;;4854219;29;20065;-77
2021/11/07 07:13:20;;;;;;;7.60;3.47;;;;;;;;;;4837411;29;20054;-78
2021/11/07 07:15:52;;;;;;;8.30;3.22;;;;;;;;;;4854395;29;20038;-78
2021/11/07 07:18:57;;;;;;;8.40;3.67;;;;;;;;;;4854051;29;20029;-76
2021/11/07 07:21:39;;;;;;;10.77;4.25;;;;;;;;;;4852067;29;20046;-76
2021/11/07 07:24:36;;;;;;;8.10;3.20;;;;;;;;;;4854249;29;20030;-76
2021/11/07 07:34:25;;;;;;;8.65;3.17;;;;;;;;;;4854059;29;20029;-76
2021/11/07 07:36:52;;;;;;;6.38;3.70;;;;;;;;;;4853974;29;20090;-78
2021/11/07 07:39:18;;;;;;;9.93;3.20;;;;;;;;;;4853872;29;20037;-77
2021/11/07 07:41:43;;;;;;;11.80;4.85;;;;;;;;;;4853723;29;20026;-74
2021/11/07 07:44:09;;;;;;;6.82;3.20;;;;;;;;;;4853055;29;20038;-77
2021/11/07 07:46:40;;;;;;;12.77;5.38;;;;;;;;;;4836880;29;20449;-75
2021/11/07 07:49:06;;;;;;;6.05;3.40;;;;;;;;;;4853900;29;20475;-76
2021/11/07 07:51:35;;;;;;;9.70;3.97;;;;;;;;;;4837185;29;20030;-78
2021/11/07 07:54:02;;;;;;;13.38;4.03;;;;;;;;;;4853467;29;20046;-75
2021/11/07 07:56:31;;;;;;;8.55;2.92;;;;;;;;;;4853080;29;20097;-79
2021/11/07 07:58:57;;;;;;;8.55;3.38;;;;;;;;;;4853183;29;20049;-76
2021/11/07 08:01:24;;;;;;;6.68;3.45;;;;;;;;;;4836601;29;20061;-76
2021/11/07 08:03:51;;;;;;;9.75;4.63;;;;;;;;;;4836528;29;20493;-78
2021/11/07 08:06:16;;;;;;;11.60;4.10;;;;;;;;;;4853334;29;20435;-77
2021/11/07 08:08:42;;;;;;;14.77;4.97;;;;;;;;;;4836496;29;20051;-77
2021/11/07 08:11:07;;;;;;;13.52;5.03;;;;;;;;;;4853245;29;20034;-75
2021/11/07 08:13:35;;;;;;;7.88;2.97;;;;;;;;;;4836359;29;20040;-78
2021/11/07 08:16:01;;;;;;;13.13;3.45;;;;;;;;;;4836571;29;20030;-79
2021/11/07 08:18:26;;;;;;;10.70;4.50;;;;;;;;;;4836427;29;20034;-76
2021/11/07 08:20:52;;;;;;;12.57;5.15;;;;;;;;;;4836951;29;20026;-78
2021/11/07 08:23:21;;;;;;;12.18;3.80;;;;;;;;;;4852587;29;20030;-76
2021/11/07 08:25:47;;;;;;;10.43;4.63;;;;;;;;;;4853220;29;20038;-76
2021/11/07 08:28:15;;;;;;;11.02;4.45;;;;;;;;;;4852985;29;20097;-77
2021/11/07 08:30:42;;;;;;;9.20;4.68;;;;;;;;;;4852685;29;20258;-76
2021/11/07 08:33:08;;;;;;;8.15;4.50;;;;;;;;;;4852353;29;20094;-76
2021/11/07 08:35:39;;;;;;;10.50;4.43;;;;;;;;;;4836195;29;20041;-76
2021/11/07 08:38:10;;;;;;;10.10;2.92;;;;;;;;;;4835791;29;20042;-77
2021/11/07 08:40:48;;;;;;;9.57;4.63;;;;;;;;;;4852425;29;20030;-77
2021/11/07 09:07:24;;;;;;;10.63;5.13;;;;;;;;;;4852244;29;20172;-75
2021/11/07 09:09:57;;;;;;;14.35;6.53;;;;;;;;;;4835864;29;20094;-77
2021/11/07 09:12:23;;;;;;;55.22;40.15;;;;;;;;;;4852238;29;20062;-77
2021/11/07 09:14:48;;;;;;;362.02;167.52;;;;;;;;;;4835810;29;20457;-77
2021/11/07 09:17:15;;;;;;;390.67;204.57;;;;;;;;;;4852057;29;20068;-76
2021/11/07 09:19:43;;;;;;;477.05;245.25;;;;;;;;;;4852220;29;20063;-77
2021/11/07 09:27:15;;;;;;;71.38;40.95;;;;;;;;;;4851961;29;20037;-77
2021/11/07 09:35:10;;;;;;;25.52;18.55;;;;;;;;;;4852373;29;20102;-76
2021/11/07 09:40:08;;;;;;;14.73;7.65;;;;;;;;;;4851950;29;20069;-77
2021/11/07 09:47:59;;;;;;;7.40;3.28;;;;;;;;;;4852047;29;20077;-77
2021/11/07 09:50:24;;;;;;;12.98;4.95;;;;;;;;;;4851876;29;20037;-77
2021/11/07 09:52:53;;;;;;;5.78;3.22;;;;;;;;;;4851634;29;20038;-77
2021/11/07 09:55:22;;;;;;;5.32;2.65;;;;;;;;;;4835677;29;20519;-77
2021/11/07 09:57:50;;;;;;;5.70;3.03;;;;;;;;;;4851856;29;20038;-77
2021/11/07 10:00:25;;;;;;;5.38;2.80;;;;;;;;;;4835767;29;20038;-77
2021/11/07 10:02:51;;;;;;;5.90;3.38;;;;;;;;;;4835240;29;20408;-76
2021/11/07 10:05:19;;;;;;;12.40;5.72;;;;;;;;;;4852240;29;20041;-78
2021/11/07 10:07:45;;;;;;;9.98;4.45;;;;;;;;;;4836975;29;20045;-77
2021/11/07 10:10:25;;;;;;;8.60;4.97;;;;;;;;;;4855186;29;20550;-76
2021/11/07 10:12:55;;;;;;;7.78;4.10;;;;;;;;;;4838461;29;20026;-77
2021/11/07 10:15:38;;;;;;;7.60;4.47;;;;;;;;;;4855098;29;20140;-75
2021/11/07 10:18:09;;;;;;;6.20;3.40;;;;;;;;;;4854960;29;20037;-77
2021/11/07 10:20:43;;;;;;;4.60;2.90;;;;;;;;;;4855322;29;20068;-76
2021/11/07 10:23:17;;;;;;;6.82;2.95;;;;;;;;;;4838150;29;20101;-75
2021/11/07 10:26:01;;;;;;;7.80;4.10;;;;;;;;;;4855138;29;20034;-78
2021/11/07 10:28:35;;;;;;;8.20;3.50;;;;;;;;;;4838103;29;20125;-76
2021/11/07 10:31:08;;;;;;;6.00;2.78;;;;;;;;;;4838007;29;20050;-77
2021/11/07 10:34:06;;;;;;;13.35;2.85;;;;;;;;;;4837996;29;20034;-74
2021/11/07 10:52:40;;;;;;;7.68;1.70;;;;;;;;;;4854714;29;20049;-76
2021/11/07 10:55:14;;;;;;;5.60;1.60;;;;;;;;;;4854582;29;20167;-76
2021/11/07 10:57:47;;;;;;;11.38;2.50;;;;;;;;;;4854511;29;20446;-77
2021/11/07 11:00:30;;;;;;;5.80;1.33;;;;;;;;;;4837778;29;20388;-76
2021/11/07 11:03:07;;;;;;;4.37;1.23;;;;;;;;;;4854126;29;20082;-77
2021/11/07 11:05:47;;;;;;;3.95;1.80;;;;;;;;;;4837753;29;20125;-75
2021/11/07 11:08:22;;;;;;;4.68;1.30;;;;;;;;;;4854249;29;20053;-77
2021/11/07 11:15:52;;;;;;;2.83;1.40;;;;;;;;;;4854517;29;20063;-77
2021/11/07 11:21:14;;;;;;;4.43;1.20;;;;;;;;;;4853816;29;20044;-74
2021/11/07 11:29:05;;;;;;;3.33;1.20;;;;;;;;;;4853970;29;20038;-76
2021/11/07 11:31:38;;;;;;;2.22;1.10;;;;;;;;;;4853536;29;20049;-75
2021/11/07 11:34:09;;;;;;;4.95;1.20;;;;;;;;;;4853730;29;20056;-77
2021/11/07 11:36:43;;;;;;;5.13;1.20;;;;;;;;;;4836936;29;20045;-76
2021/11/07 11:39:18;;;;;;;6.10;1.40;;;;;;;;;;4853538;29;20534;-75
2021/11/07 11:42:01;;;;;;;5.35;1.10;;;;;;;;;;4853325;29;20034;-74
2021/11/07 11:44:29;;;;;;;4.65;1.23;;;;;;;;;;4853551;29;20060;-74
2021/11/07 11:47:33;;;;;;;2.28;1.15;;;;;;;;;;4853591;29;20093;-73
2021/11/07 11:52:34;;;;;;;19.30;8.75;;;;;;;;;;4853062;29;19928;-74
2021/11/07 11:55:22;;;;;;;6.85;1.52;;;;;;;;;;4853665;29;20089;-74
2021/11/07 12:08:15;;;;;;;2.17;1.38;;;;;;;;;;4853401;29;20074;-74
2021/11/07 12:13:47;;;;;;;3.47;0.98;;;;;;;;;;4853222;29;20038;-74
2021/11/07 12:16:21;;;;;;;6.20;1.85;;;;;;;;;;4852882;29;20472;-76
2021/11/07 12:19:09;;;;;;;4.00;1.05;;;;;;;;;;4836658;29;20041;-74
2021/11/07 12:21:54;;;;;;;4.18;1.25;;;;;;;;;;4852689;29;20168;-75
2021/11/07 12:24:24;;;;;;;10.60;6.47;;;;;;;;;;4836108;29;20068;-75
2021/11/07 12:26:49;;;;;;;4.90;1.52;;;;;;;;;;4852633;29;20040;-74
2021/11/07 12:29:43;;;;;;;4.47;0.88;;;;;;;;;;4836546;29;20053;-75
2021/11/07 12:32:11;;;;;;;3.25;0.90;;;;;;;;;;4849198;29;20046;-74
2021/11/07 12:35:04;;;;;;;7.85;1.27;;;;;;;;;;4852489;29;20042;-73
2021/11/07 12:40:58;;;;;;;2.63;0.93;;;;;;;;;;4852601;29;20102;-77
2021/11/07 12:43:33;;;;;;;4.88;0.90;;;;;;;;;;4835991;29;20033;-77
2021/11/07 12:46:36;;;;;;;7.70;1.65;;;;;;;;;;4852352;29;20093;-75
2021/11/07 12:49:06;;;;;;;5.25;1.27;;;;;;;;;;4852338;29;20042;-73
2021/11/07 12:51:38;;;;;;;4.15;1.48;;;;;;;;;;4835420;29;20038;-74
2021/11/07 12:54:13;;;;;;;5.00;1.23;;;;;;;;;;4852395;29;20037;-73
2021/11/07 12:56:38;;;;;;;6.13;2.15;;;;;;;;;;4852121;29;20095;-74
2021/11/07 12:59:07;;;;;;;2.17;1.02;;;;;;;;;;4852440;29;20030;-74
2021/11/07 13:02:03;;;;;;;4.07;2.20;;;;;;;;;;4851950;29;20059;-73
2021/11/07 13:04:32;;;;;;;6.38;1.40;;;;;;;;;;4820514;29;20050;-76
2021/11/07 13:07:02;;;;;;;4.75;1.15;;;;;;;;;;4852116;29;20324;-76
2021/11/07 13:09:41;;;;;;;9.63;1.50;;;;;;;;;;4852191;29;20030;-75
2021/11/07 13:12:20;;;;;;;7.22;1.67;;;;;;;;;;4851858;29;20030;-76
2021/11/07 13:15:08;;;;;;;3.85;1.08;;;;;;;;;;4852016;29;20061;-75
2021/11/07 13:26:11;;;;;;;8.85;1.35;;;;;;;;;;4851584;29;20038;-75
2021/11/07 13:28:45;;;;;;;5.53;1.23;;;;;;;;;;4851894;29;20573;-74
2021/11/07 13:31:23;;;;;;;8.38;1.33;;;;;;;;;;4851689;29;20063;-76
2021/11/07 13:33:49;;;;;;;6.45;1.10;;;;;;;;;;4852139;29;20029;-75
2021/11/07 13:36:18;;;;;;;8.25;1.50;;;;;;;;;;4835221;29;20038;-76
2021/11/07 13:38:59;;;;;;;6.13;1.38;;;;;;;;;;4851264;29;20061;-75
2021/11/07 13:41:28;;;;;;;6.57;1.20;;;;;;;;;;4851309;29;20046;-76
2021/11/07 13:44:17;;;;;;;5.25;1.00;;;;;;;;;;4855165;29;20546;-74
2021/11/07 13:47:09;;;;;;;8.07;1.00;;;;;;;;;;4855229;29;20034;-76
2021/11/07 13:49:48;;;;;;;4.45;1.00;;;;;;;;;;4835300;29;20050;-73
2021/11/07 13:52:14;;;;;;;8.02;1.27;;;;;;;;;;4854609;29;20044;-76
2021/11/07 13:54:40;;;;;;;11.88;2.33;;;;;;;;;;4838578;29;20030;-77
2021/11/07 13:57:05;;;;;;;5.63;1.00;;;;;;;;;;4854906;29;20038;-77
2021/11/07 13:59:43;;;;;;;9.85;1.65;;;;;;;;;;4838457;29;20094;-79
2021/11/07 14:02:17;;;;;;;11.40;1.42;;;;;;;;;;4854721;29;20037;-78
2021/11/07 14:04:51;;;;;;;;;;;;;;;;;;4838884;29;20038;-78
2021/11/07 14:07:27;;;;;;;;;;;;;;;;;;4838451;29;19916;-79
2021/11/07 14:10:11;;;;;;;6.07;0.90;;;;;;;;;;4855004;29;19922;-76
2021/11/07 14:12:45;;;;;;;9.63;2.17;;;;;;;;;;4854621;29;20448;-78
2021/11/07 14:15:24;;;;;;;8.88;1.55;;;;;;;;;;4855049;29;20030;-75
2021/11/07 14:17:52;;;;;;;10.18;1.20;;;;;;;;;;4854490;29;20033;-79
2021/11/07 14:20:42;;;;;;;5.93;1.15;;;;;;;;;;4854407;29;20022;-77
2021/11/07 14:23:24;;;;;;;11.57;1.35;;;;;;;;;;4854530;29;20038;-76
2021/11/07 14:25:53;;;;;;;8.52;1.17;;;;;;;;;;4854821;29;20086;-77
2021/11/07 14:28:35;;;;;;;15.77;1.90;;;;;;;;;;4854109;29;20040;-77
2021/11/07 14:31:05;;;;;;;11.80;1.65;;;;;;;;;;4837916;29;20052;-77
2021/11/07 14:33:38;;;;;;;6.72;1.52;;;;;;;;;;4854875;29;20033;-79
2021/11/07 14:39:03;;;;;;;13.98;1.55;;;;;;;;;;4854633;29;20038;-78
2021/11/07 14:44:27;;;;;;;;;;;;;;;;;;4855293;29;20037;-78
2021/11/07 14:47:21;;;;;;;8.95;1.23;;;;;;;;;;4838066;29;19912;-80
2021/11/07 14:50:03;;;;;;;13.50;1.80;;;;;;;;;;4838009;29;20033;-80
2021/11/07 14:52:49;;;;;;;12.60;1.40;;;;;;;;;;4837391;29;20042;-78
2021/11/07 14:55:24;;;;;;;9.63;1.13;;;;;;;;;;4837773;29;20038;-77
2021/11/07 15:00:55;;;;;;;9.98;1.23;;;;;;;;;;4854375;29;20105;-78
2021/11/07 15:03:25;;;;;;;9.80;1.35;;;;;;;;;;4854190;29;20505;-79
2021/11/07 15:06:35;;;;;;;11.60;1.45;;;;;;;;;;4837421;29;20079;-79
2021/11/07 15:09:05;;;;;;;11.52;1.30;;;;;;;;;;4853515;29;20058;-80
2021/11/07 15:11:42;;;;;;;10.45;1.38;;;;;;;;;;4837421;29;20048;-77
2021/11/07 15:17:05;;;;;;;10.20;1.38;;;;;;;;;;4854063;29;20120;-78
2021/11/07 15:19:52;;;;;;;14.48;1.52;;;;;;;;;;4854044;29;20094;-77
2021/11/07 15:22:22;;;;;;;16.67;2.00;;;;;;;;;;4853810;29;20245;-79
2021/11/07 15:24:52;;;;;;;9.50;1.75;;;;;;;;;;4853816;29;20069;-76
2021/11/07 15:27:26;;;;;;;10.30;1.35;;;;;;;;;;4853780;29;20030;-76
2021/11/07 15:30:03;;;;;;;13.25;1.33;;;;;;;;;;4853675;29;20089;-79
2021/11/07 15:32:34;;;;;;;5.80;1.27;;;;;;;;;;4837154;29;20571;-83
2021/11/07 15:34:59;;;;;;;7.50;2.03;;;;;;;;;;4853807;29;20034;-76
2021/11/07 15:37:35;;;;;;;10.32;1.98;;;;;;;;;;4836939;29;20041;-81
2021/11/07 15:40:05;;;;;;;16.58;1.60;;;;;;;;;;4853675;29;20116;-81
2021/11/07 15:42:33;;;;;;;9.23;1.80;;;;;;;;;;4836689;29;20385;-80
2021/11/07 15:45:34;;;;;;;9.73;1.25;;;;;;;;;;4836075;29;20045;-79
2021/11/07 15:48:01;;;;;;;7.68;1.00;;;;;;;;;;4834441;29;20105;-79
2021/11/07 15:59:17;;;;;;;8.18;1.35;;;;;;;;;;4852978;29;20034;-79
2021/11/07 16:14:29;;;;;;;11.45;1.45;;;;;;;;;;4852993;29;20057;-80
2021/11/07 16:17:01;;;;;;;8.35;1.35;;;;;;;;;;4836620;29;20033;-79
2021/11/07 16:19:30;;;;;;;3.97;1.13;;;;;;;;;;4835956;29;20045;-81
2021/11/07 16:21:56;;;;;;;4.80;1.05;;;;;;;;;;4852660;29;20063;-78
2021/11/07 16:24:24;;;;;;;12.18;1.63;;;;;;;;;;4852725;29;20038;-81
2021/11/07 16:27:13;;;;;;;5.55;1.00;;;;;;;;;;4836194;29;20033;-79
2021/11/07 16:29:37;;;;;;;7.50;1.17;;;;;;;;;;4852003;29;20050;-79
2021/11/07 16:34:38;;;;;;;6.68;1.20;;;;;;;;;;4852509;29;20038;-80
2021/11/07 16:37:06;;;;;;;5.40;1.20;;;;;;;;;;4852439;29;20034;-80
2021/11/07 16:39:36;;;;;;;4.85;1.05;;;;;;;;;;4835902;29;20049;-80
2021/11/07 16:42:09;;;;;;;7.75;1.15;;;;;;;;;;4851946;29;20503;-79
2021/11/07 16:44:37;;;;;;;5.63;0.93;;;;;;;;;;4835835;29;20033;-81
2021/11/07 16:47:09;;;;;;;7.00;1.02;;;;;;;;;;4852135;29;20392;-78
2021/11/07 16:49:36;;;;;;;8.98;1.20;;;;;;;;;;4851953;29;20087;-80
2021/11/07 16:54:44;;;;;;;7.70;1.00;;;;;;;;;;4852425;29;20042;-84
2021/11/07 16:57:09;;;;;;;8.52;1.63;;;;;;;;;;4851977;29;20034;-81
2021/11/07 17:07:15;;;;;;;7.05;1.20;;;;;;;;;;4851865;29;20514;-78
2021/11/07 17:12:30;;;;;;;8.00;1.35;;;;;;;;;;4851983;29;20383;-80
2021/11/07 17:15:12;;;;;;;7.65;1.30;;;;;;;;;;4851190;29;20041;-80
2021/11/07 17:17:56;;;;;;;6.47;1.00;;;;;;;;;;4850978;29;20123;-81
2021/11/07 17:25:24;;;;;;;6.18;0.82;;;;;;;;;;4852168;29;20093;-76
2021/11/07 17:28:01;;;;;;;5.13;0.98;;;;;;;;;;4835055;29;20073;-81
2021/11/07 17:30:32;;;;;;;5.85;0.82;;;;;;;;;;4851774;29;20046;-80
2021/11/07 17:33:06;;;;;;;5.93;0.80;;;;;;;;;;4835626;29;20080;-80
2021/11/07 17:35:58;;;;;;;13.80;1.00;;;;;;;;;;4835144;29;20041;-80
2021/11/07 17:38:43;;;;;;;10.75;1.10;;;;;;;;;;4835409;29;20030;-80
2021/11/07 17:54:38;;;;;;;6.18;0.82;;;;;;;;;;4831767;29;20078;-78
2021/11/07 17:57:07;;;;;;;3.95;0.95;;;;;;;;;;4835222;29;20053;-78
2021/11/07 17:59:34;;;;;;;10.68;1.63;;;;;;;;;;4851670;29;20125;-80
2021/11/07 18:02:00;;;;;;;7.05;1.23;;;;;;;;;;4851348;29;20101;-77
2021/11/07 18:04:26;;;;;;;5.72;1.77;;;;;;;;;;4835074;29;20084;-79
2021/11/07 18:06:57;;;;;;;7.45;1.67;;;;;;;;;;4851369;29;20266;-80
2021/11/07 18:09:25;;;;;;;9.52;1.35;;;;;;;;;;4835297;29;20041;-76
2021/11/07 18:11:54;;;;;;;6.35;1.23;;;;;;;;;;4851474;29;20034;-78
2021/11/07 18:14:20;;;;;;;8.30;1.52;;;;;;;;;;4834691;29;20117;-77